sensor_id;sensor_type;location;lat;lon;timestamp;pressure;altitude;pressure_sealevel;temperature
19666;BMP180;9980;51.020;7.772;2022-12-07T00:01:42;97454.00;;;8.00
19666;BMP180;9980;51.020;7.772;2022-12-07T00:04:13;97457.00;;;8.00
19666;BMP180;9980;51.020;7.772;2022-12-07T00:06:44;97448.00;;;8.10
19666;BMP180;9980;51.020;7.772;2022-12-07T00:09:16;97441.00;;;8.00
19666;BMP180;9980;51.020;7.772;2022-12-07T00:11:43;97450.00;;;8.00
19666;BMP180;9980;51.020;7.772;2022-12-07T00:14:14;97449.00;;;8.10
19666;BMP180;9980;51.020;7.772;2022-12-07T00:16:41;97455.00;;;8.10
19666;BMP180;9980;51.020;7.772;2022-12-07T00:19:09;97444.00;;;8.10
19666;BMP180;9980;51.020;7.772;2022-12-07T00:21:36;97457.00;;;8.10
19666;BMP180;9980;51.020;7.772;2022-12-07T00:24:06;97440.00;;;8.10
19666;BMP180;9980;51.020;7.772;2022-12-07T00:26:36;97451.00;;;8.10
19666;BMP180;9980;51.020;7.772;2022-12-07T00:29:20;97455.00;;;8.10
19666;BMP180;9980;51.020;7.772;2022-12-07T00:31:49;97446.00;;;8.10
19666;BMP180;9980;51.020;7.772;2022-12-07T00:34:21;97444.00;;;8.10
19666;BMP180;9980;51.020;7.772;2022-12-07T00:36:48;97432.00;;;8.20
19666;BMP180;9980;51.020;7.772;2022-12-07T00:39:15;97434.00;;;8.20
19666;BMP180;9980;51.020;7.772;2022-12-07T00:41:41;97427.00;;;8.20
19666;BMP180;9980;51.020;7.772;2022-12-07T00:44:08;97442.00;;;8.20
19666;BMP180;9980;51.020;7.772;2022-12-07T00:46:34;97422.00;;;8.20
19666;BMP180;9980;51.020;7.772;2022-12-07T00:49:00;97419.00;;;8.20
19666;BMP180;9980;51.020;7.772;2022-12-07T00:51:27;97420.00;;;8.20
19666;BMP180;9980;51.020;7.772;2022-12-07T00:53:53;97421.00;;;8.20
19666;BMP180;9980;51.020;7.772;2022-12-07T00:56:23;97417.00;;;8.20
19666;BMP180;9980;51.020;7.772;2022-12-07T00:58:56;97416.00;;;8.20
19666;BMP180;9980;51.020;7.772;2022-12-07T01:01:25;97408.00;;;8.20
19666;BMP180;9980;51.020;7.772;2022-12-07T01:03:52;97414.00;;;8.20
19666;BMP180;9980;51.020;7.772;2022-12-07T01:06:20;97404.00;;;8.20
19666;BMP180;9980;51.020;7.772;2022-12-07T01:08:47;97408.00;;;8.20
19666;BMP180;9980;51.020;7.772;2022-12-07T01:11:18;97408.00;;;8.20
19666;BMP180;9980;51.020;7.772;2022-12-07T01:13:45;97422.00;;;8.20
19666;BMP180;9980;51.020;7.772;2022-12-07T01:16:14;97411.00;;;8.20
19666;BMP180;9980;51.020;7.772;2022-12-07T01:18:42;97416.00;;;8.20
19666;BMP180;9980;51.020;7.772;2022-12-07T01:21:15;97420.00;;;8.20
19666;BMP180;9980;51.020;7.772;2022-12-07T01:23:42;97432.00;;;8.20
19666;BMP180;9980;51.020;7.772;2022-12-07T01:26:16;97422.00;;;8.20
19666;BMP180;9980;51.020;7.772;2022-12-07T01:28:43;97417.00;;;8.20
19666;BMP180;9980;51.020;7.772;2022-12-07T01:31:19;97421.00;;;8.20
19666;BMP180;9980;51.020;7.772;2022-12-07T01:33:51;97426.00;;;8.30
19666;BMP180;9980;51.020;7.772;2022-12-07T01:38:56;97429.00;;;8.20
19666;BMP180;9980;51.020;7.772;2022-12-07T01:41:28;97426.00;;;8.30
19666;BMP180;9980;51.020;7.772;2022-12-07T01:44:22;97418.00;;;8.30
19666;BMP180;9980;51.020;7.772;2022-12-07T01:46:51;97420.00;;;8.30
19666;BMP180;9980;51.020;7.772;2022-12-07T01:49:39;97413.00;;;8.30
19666;BMP180;9980;51.020;7.772;2022-12-07T01:52:25;97403.00;;;8.30
19666;BMP180;9980;51.020;7.772;2022-12-07T01:54:57;97401.00;;;8.30
19666;BMP180;9980;51.020;7.772;2022-12-07T01:57:25;97401.00;;;8.30
19666;BMP180;9980;51.020;7.772;2022-12-07T01:59:53;97402.00;;;8.30
19666;BMP180;9980;51.020;7.772;2022-12-07T02:02:34;97405.00;;;8.30
19666;BMP180;9980;51.020;7.772;2022-12-07T02:05:05;97408.00;;;8.30
19666;BMP180;9980;51.020;7.772;2022-12-07T02:07:36;97409.00;;;8.30
19666;BMP180;9980;51.020;7.772;2022-12-07T02:12:56;97400.00;;;8.30
19666;BMP180;9980;51.020;7.772;2022-12-07T02:15:57;97390.00;;;8.30
19666;BMP180;9980;51.020;7.772;2022-12-07T02:21:38;97393.00;;;8.30
19666;BMP180;9980;51.020;7.772;2022-12-07T02:24:23;97401.00;;;8.30
19666;BMP180;9980;51.020;7.772;2022-12-07T02:30:22;97392.00;;;8.30
19666;BMP180;9980;51.020;7.772;2022-12-07T02:33:13;97397.00;;;8.30
19666;BMP180;9980;51.020;7.772;2022-12-07T02:35:44;97387.00;;;8.30
19666;BMP180;9980;51.020;7.772;2022-12-07T02:38:37;97392.00;;;8.30
19666;BMP180;9980;51.020;7.772;2022-12-07T02:41:37;97381.00;;;8.30
19666;BMP180;9980;51.020;7.772;2022-12-07T02:44:10;97385.00;;;8.30
19666;BMP180;9980;51.020;7.772;2022-12-07T02:46:44;97371.00;;;8.30
19666;BMP180;9980;51.020;7.772;2022-12-07T02:49:12;97376.00;;;8.30
19666;BMP180;9980;51.020;7.772;2022-12-07T02:51:43;97384.00;;;8.30
19666;BMP180;9980;51.020;7.772;2022-12-07T02:54:16;97387.00;;;8.30
19666;BMP180;9980;51.020;7.772;2022-12-07T02:57:11;97373.00;;;8.30
19666;BMP180;9980;51.020;7.772;2022-12-07T03:00:00;97365.00;;;8.30
19666;BMP180;9980;51.020;7.772;2022-12-07T03:02:36;97374.00;;;8.30
19666;BMP180;9980;51.020;7.772;2022-12-07T03:08:12;97375.00;;;8.40
19666;BMP180;9980;51.020;7.772;2022-12-07T03:13:39;97366.00;;;8.40
19666;BMP180;9980;51.020;7.772;2022-12-07T03:16:20;97374.00;;;8.40
19666;BMP180;9980;51.020;7.772;2022-12-07T03:19:02;97373.00;;;8.40
19666;BMP180;9980;51.020;7.772;2022-12-07T03:21:38;97373.00;;;8.40
19666;BMP180;9980;51.020;7.772;2022-12-07T03:24:13;97364.00;;;8.40
19666;BMP180;9980;51.020;7.772;2022-12-07T03:26:51;97371.00;;;8.40
19666;BMP180;9980;51.020;7.772;2022-12-07T03:29:33;97370.00;;;8.40
19666;BMP180;9980;51.020;7.772;2022-12-07T03:32:24;97373.00;;;8.40
19666;BMP180;9980;51.020;7.772;2022-12-07T03:35:14;97365.00;;;8.40
19666;BMP180;9980;51.020;7.772;2022-12-07T03:38:00;97370.00;;;8.40
19666;BMP180;9980;51.020;7.772;2022-12-07T03:40:45;97373.00;;;8.40
19666;BMP180;9980;51.020;7.772;2022-12-07T03:43:12;97384.00;;;8.40
19666;BMP180;9980;51.020;7.772;2022-12-07T03:45:43;97369.00;;;8.40
19666;BMP180;9980;51.020;7.772;2022-12-07T03:48:35;97377.00;;;8.40
19666;BMP180;9980;51.020;7.772;2022-12-07T03:51:24;97344.00;;;8.40
19666;BMP180;9980;51.020;7.772;2022-12-07T03:56:44;97366.00;;;8.40
19666;BMP180;9980;51.020;7.772;2022-12-07T03:59:14;97376.00;;;8.40
19666;BMP180;9980;51.020;7.772;2022-12-07T04:01:43;97359.00;;;8.40
19666;BMP180;9980;51.020;7.772;2022-12-07T04:04:10;97356.00;;;8.40
19666;BMP180;9980;51.020;7.772;2022-12-07T04:06:37;97367.00;;;8.50
19666;BMP180;9980;51.020;7.772;2022-12-07T04:09:03;97358.00;;;8.50
19666;BMP180;9980;51.020;7.772;2022-12-07T04:11:29;97354.00;;;8.50
19666;BMP180;9980;51.020;7.772;2022-12-07T04:13:55;97364.00;;;8.50
19666;BMP180;9980;51.020;7.772;2022-12-07T04:16:40;97364.00;;;8.50
19666;BMP180;9980;51.020;7.772;2022-12-07T04:19:11;97370.00;;;8.50
19666;BMP180;9980;51.020;7.772;2022-12-07T04:21:37;97355.00;;;8.50
19666;BMP180;9980;51.020;7.772;2022-12-07T04:24:04;97364.00;;;8.50
19666;BMP180;9980;51.020;7.772;2022-12-07T04:26:31;97356.00;;;8.50
19666;BMP180;9980;51.020;7.772;2022-12-07T04:28:57;97376.00;;;8.50
19666;BMP180;9980;51.020;7.772;2022-12-07T04:31:23;97364.00;;;8.50
19666;BMP180;9980;51.020;7.772;2022-12-07T04:33:49;97382.00;;;8.50
19666;BMP180;9980;51.020;7.772;2022-12-07T04:36:16;97376.00;;;8.50
19666;BMP180;9980;51.020;7.772;2022-12-07T04:38:42;97384.00;;;8.50
19666;BMP180;9980;51.020;7.772;2022-12-07T04:41:09;97385.00;;;8.50
19666;BMP180;9980;51.020;7.772;2022-12-07T04:43:35;97371.00;;;8.50
19666;BMP180;9980;51.020;7.772;2022-12-07T04:46:02;97376.00;;;8.50
19666;BMP180;9980;51.020;7.772;2022-12-07T04:48:28;97380.00;;;8.50
19666;BMP180;9980;51.020;7.772;2022-12-07T04:50:55;97382.00;;;8.50
19666;BMP180;9980;51.020;7.772;2022-12-07T04:53:21;97385.00;;;8.50
19666;BMP180;9980;51.020;7.772;2022-12-07T04:55:48;97360.00;;;8.50
19666;BMP180;9980;51.020;7.772;2022-12-07T04:58:14;97369.00;;;8.50
19666;BMP180;9980;51.020;7.772;2022-12-07T05:00:41;97374.00;;;8.50
19666;BMP180;9980;51.020;7.772;2022-12-07T05:03:07;97366.00;;;8.50
19666;BMP180;9980;51.020;7.772;2022-12-07T05:05:33;97369.00;;;8.50
19666;BMP180;9980;51.020;7.772;2022-12-07T05:08:00;97376.00;;;8.50
19666;BMP180;9980;51.020;7.772;2022-12-07T05:10:26;97372.00;;;8.50
19666;BMP180;9980;51.020;7.772;2022-12-07T05:12:52;97365.00;;;8.50
19666;BMP180;9980;51.020;7.772;2022-12-07T05:15:18;97369.00;;;8.50
19666;BMP180;9980;51.020;7.772;2022-12-07T05:17:45;97357.00;;;8.50
19666;BMP180;9980;51.020;7.772;2022-12-07T05:20:11;97354.00;;;8.50
19666;BMP180;9980;51.020;7.772;2022-12-07T05:22:37;97375.00;;;8.50
19666;BMP180;9980;51.020;7.772;2022-12-07T05:25:04;97366.00;;;8.50
19666;BMP180;9980;51.020;7.772;2022-12-07T05:27:30;97369.00;;;8.50
19666;BMP180;9980;51.020;7.772;2022-12-07T05:29:56;97363.00;;;8.40
19666;BMP180;9980;51.020;7.772;2022-12-07T05:32:22;97356.00;;;8.40
19666;BMP180;9980;51.020;7.772;2022-12-07T05:34:48;97367.00;;;8.50
19666;BMP180;9980;51.020;7.772;2022-12-07T05:37:15;97358.00;;;8.50
19666;BMP180;9980;51.020;7.772;2022-12-07T05:39:41;97370.00;;;8.50
19666;BMP180;9980;51.020;7.772;2022-12-07T05:42:10;97363.00;;;8.50
19666;BMP180;9980;51.020;7.772;2022-12-07T05:44:41;97362.00;;;8.50
19666;BMP180;9980;51.020;7.772;2022-12-07T05:47:08;97379.00;;;8.50
19666;BMP180;9980;51.020;7.772;2022-12-07T05:49:35;97373.00;;;8.50
19666;BMP180;9980;51.020;7.772;2022-12-07T05:52:01;97361.00;;;8.50
19666;BMP180;9980;51.020;7.772;2022-12-07T05:54:28;97383.00;;;8.40
19666;BMP180;9980;51.020;7.772;2022-12-07T05:56:54;97367.00;;;8.40
19666;BMP180;9980;51.020;7.772;2022-12-07T05:59:20;97373.00;;;8.50
19666;BMP180;9980;51.020;7.772;2022-12-07T06:01:55;97372.00;;;8.50
19666;BMP180;9980;51.020;7.772;2022-12-07T06:04:22;97368.00;;;8.50
19666;BMP180;9980;51.020;7.772;2022-12-07T06:06:49;97368.00;;;8.50
19666;BMP180;9980;51.020;7.772;2022-12-07T06:09:15;97355.00;;;8.50
19666;BMP180;9980;51.020;7.772;2022-12-07T06:11:42;97356.00;;;8.50
19666;BMP180;9980;51.020;7.772;2022-12-07T06:14:26;97354.00;;;8.50
19666;BMP180;9980;51.020;7.772;2022-12-07T06:16:55;97361.00;;;8.50
19666;BMP180;9980;51.020;7.772;2022-12-07T06:19:21;97366.00;;;8.40
19666;BMP180;9980;51.020;7.772;2022-12-07T06:21:47;97361.00;;;8.40
19666;BMP180;9980;51.020;7.772;2022-12-07T06:24:16;97371.00;;;8.40
19666;BMP180;9980;51.020;7.772;2022-12-07T06:26:43;97373.00;;;8.50
19666;BMP180;9980;51.020;7.772;2022-12-07T06:29:11;97374.00;;;8.40
19666;BMP180;9980;51.020;7.772;2022-12-07T06:31:37;97378.00;;;8.40
19666;BMP180;9980;51.020;7.772;2022-12-07T06:34:10;97400.00;;;8.40
19666;BMP180;9980;51.020;7.772;2022-12-07T06:36:37;97380.00;;;8.40
19666;BMP180;9980;51.020;7.772;2022-12-07T06:39:04;97401.00;;;8.40
19666;BMP180;9980;51.020;7.772;2022-12-07T06:41:31;97393.00;;;8.40
19666;BMP180;9980;51.020;7.772;2022-12-07T06:43:58;97378.00;;;8.40
19666;BMP180;9980;51.020;7.772;2022-12-07T06:46:24;97385.00;;;8.40
19666;BMP180;9980;51.020;7.772;2022-12-07T06:48:51;97383.00;;;8.40
19666;BMP180;9980;51.020;7.772;2022-12-07T06:51:17;97384.00;;;8.40
19666;BMP180;9980;51.020;7.772;2022-12-07T06:53:43;97376.00;;;8.40
19666;BMP180;9980;51.020;7.772;2022-12-07T06:56:10;97385.00;;;8.40
19666;BMP180;9980;51.020;7.772;2022-12-07T06:58:36;97376.00;;;8.40
19666;BMP180;9980;51.020;7.772;2022-12-07T07:01:02;97381.00;;;8.40
19666;BMP180;9980;51.020;7.772;2022-12-07T07:03:29;97397.00;;;8.40
19666;BMP180;9980;51.020;7.772;2022-12-07T07:05:55;97385.00;;;8.40
19666;BMP180;9980;51.020;7.772;2022-12-07T07:08:21;97388.00;;;8.40
19666;BMP180;9980;51.020;7.772;2022-12-07T07:10:49;97393.00;;;8.40
19666;BMP180;9980;51.020;7.772;2022-12-07T07:13:15;97397.00;;;8.30
19666;BMP180;9980;51.020;7.772;2022-12-07T07:15:42;97393.00;;;8.30
19666;BMP180;9980;51.020;7.772;2022-12-07T07:18:08;97379.00;;;8.30
19666;BMP180;9980;51.020;7.772;2022-12-07T07:20:34;97400.00;;;8.30
19666;BMP180;9980;51.020;7.772;2022-12-07T07:23:01;97387.00;;;8.30
19666;BMP180;9980;51.020;7.772;2022-12-07T07:25:27;97377.00;;;8.30
19666;BMP180;9980;51.020;7.772;2022-12-07T07:27:54;97389.00;;;8.30
19666;BMP180;9980;51.020;7.772;2022-12-07T07:30:20;97389.00;;;8.40
19666;BMP180;9980;51.020;7.772;2022-12-07T07:32:47;97388.00;;;8.30
19666;BMP180;9980;51.020;7.772;2022-12-07T07:35:13;97394.00;;;8.30
19666;BMP180;9980;51.020;7.772;2022-12-07T07:37:40;97392.00;;;8.30
19666;BMP180;9980;51.020;7.772;2022-12-07T07:40:08;97380.00;;;8.30
19666;BMP180;9980;51.020;7.772;2022-12-07T07:42:35;97392.00;;;8.40
19666;BMP180;9980;51.020;7.772;2022-12-07T07:45:02;97382.00;;;8.40
19666;BMP180;9980;51.020;7.772;2022-12-07T07:47:28;97372.00;;;8.40
19666;BMP180;9980;51.020;7.772;2022-12-07T07:49:55;97388.00;;;8.40
19666;BMP180;9980;51.020;7.772;2022-12-07T07:52:21;97384.00;;;8.40
19666;BMP180;9980;51.020;7.772;2022-12-07T07:54:47;97384.00;;;8.40
19666;BMP180;9980;51.020;7.772;2022-12-07T07:57:13;97398.00;;;8.40
19666;BMP180;9980;51.020;7.772;2022-12-07T07:59:39;97394.00;;;8.40
19666;BMP180;9980;51.020;7.772;2022-12-07T08:02:05;97402.00;;;8.40
19666;BMP180;9980;51.020;7.772;2022-12-07T08:04:32;97417.00;;;8.40
19666;BMP180;9980;51.020;7.772;2022-12-07T08:06:58;97396.00;;;8.40
19666;BMP180;9980;51.020;7.772;2022-12-07T08:09:24;97418.00;;;8.40
19666;BMP180;9980;51.020;7.772;2022-12-07T08:11:50;97401.00;;;8.40
19666;BMP180;9980;51.020;7.772;2022-12-07T08:14:17;97419.00;;;8.30
19666;BMP180;9980;51.020;7.772;2022-12-07T08:16:43;97416.00;;;8.30
19666;BMP180;9980;51.020;7.772;2022-12-07T08:19:09;97411.00;;;8.30
19666;BMP180;9980;51.020;7.772;2022-12-07T08:21:35;97412.00;;;8.30
19666;BMP180;9980;51.020;7.772;2022-12-07T08:24:03;97415.00;;;8.30
19666;BMP180;9980;51.020;7.772;2022-12-07T08:26:30;97406.00;;;8.30
19666;BMP180;9980;51.020;7.772;2022-12-07T08:28:56;97421.00;;;8.30
19666;BMP180;9980;51.020;7.772;2022-12-07T08:31:22;97409.00;;;8.30
19666;BMP180;9980;51.020;7.772;2022-12-07T08:33:48;97411.00;;;8.30
19666;BMP180;9980;51.020;7.772;2022-12-07T08:36:15;97417.00;;;8.30
19666;BMP180;9980;51.020;7.772;2022-12-07T08:38:42;97413.00;;;8.30
19666;BMP180;9980;51.020;7.772;2022-12-07T08:41:22;97407.00;;;8.30
19666;BMP180;9980;51.020;7.772;2022-12-07T08:43:48;97417.00;;;8.40
19666;BMP180;9980;51.020;7.772;2022-12-07T08:46:28;97420.00;;;8.40
19666;BMP180;9980;51.020;7.772;2022-12-07T08:49:07;97424.00;;;8.40
19666;BMP180;9980;51.020;7.772;2022-12-07T08:51:34;97421.00;;;8.40
19666;BMP180;9980;51.020;7.772;2022-12-07T08:54:05;97406.00;;;8.30
19666;BMP180;9980;51.020;7.772;2022-12-07T08:56:33;97418.00;;;8.40
19666;BMP180;9980;51.020;7.772;2022-12-07T08:58:59;97411.00;;;8.40
19666;BMP180;9980;51.020;7.772;2022-12-07T09:01:26;97409.00;;;8.40
19666;BMP180;9980;51.020;7.772;2022-12-07T09:03:53;97425.00;;;8.40
19666;BMP180;9980;51.020;7.772;2022-12-07T09:06:19;97409.00;;;8.40
19666;BMP180;9980;51.020;7.772;2022-12-07T09:08:50;97405.00;;;8.40
19666;BMP180;9980;51.020;7.772;2022-12-07T09:11:17;97421.00;;;8.40
19666;BMP180;9980;51.020;7.772;2022-12-07T09:13:43;97414.00;;;8.40
19666;BMP180;9980;51.020;7.772;2022-12-07T09:16:09;97422.00;;;8.40
19666;BMP180;9980;51.020;7.772;2022-12-07T09:18:36;97422.00;;;8.40
19666;BMP180;9980;51.020;7.772;2022-12-07T09:21:17;97421.00;;;8.40
19666;BMP180;9980;51.020;7.772;2022-12-07T09:23:45;97415.00;;;8.50
19666;BMP180;9980;51.020;7.772;2022-12-07T09:26:11;97419.00;;;8.50
19666;BMP180;9980;51.020;7.772;2022-12-07T09:28:38;97413.00;;;8.50
19666;BMP180;9980;51.020;7.772;2022-12-07T09:31:05;97422.00;;;8.50
19666;BMP180;9980;51.020;7.772;2022-12-07T09:33:58;97426.00;;;8.60
19666;BMP180;9980;51.020;7.772;2022-12-07T09:36:27;97430.00;;;8.60
19666;BMP180;9980;51.020;7.772;2022-12-07T09:38:54;97415.00;;;8.60
19666;BMP180;9980;51.020;7.772;2022-12-07T09:41:22;97409.00;;;8.60
19666;BMP180;9980;51.020;7.772;2022-12-07T09:43:51;97415.00;;;8.70
19666;BMP180;9980;51.020;7.772;2022-12-07T09:46:20;97420.00;;;8.70
19666;BMP180;9980;51.020;7.772;2022-12-07T09:48:49;97429.00;;;8.70
19666;BMP180;9980;51.020;7.772;2022-12-07T09:51:24;97421.00;;;8.70
19666;BMP180;9980;51.020;7.772;2022-12-07T09:53:54;97424.00;;;8.70
19666;BMP180;9980;51.020;7.772;2022-12-07T09:56:22;97418.00;;;8.70
19666;BMP180;9980;51.020;7.772;2022-12-07T09:58:54;97406.00;;;8.80
19666;BMP180;9980;51.020;7.772;2022-12-07T10:01:30;97401.00;;;8.80
19666;BMP180;9980;51.020;7.772;2022-12-07T10:04:16;97399.00;;;8.70
19666;BMP180;9980;51.020;7.772;2022-12-07T10:06:43;97400.00;;;8.70
19666;BMP180;9980;51.020;7.772;2022-12-07T10:09:15;97397.00;;;8.70
19666;BMP180;9980;51.020;7.772;2022-12-07T10:12:09;97399.00;;;8.70
19666;BMP180;9980;51.020;7.772;2022-12-07T10:15:00;97412.00;;;8.70
19666;BMP180;9980;51.020;7.772;2022-12-07T10:17:39;97404.00;;;8.70
19666;BMP180;9980;51.020;7.772;2022-12-07T10:20:13;97402.00;;;8.70
19666;BMP180;9980;51.020;7.772;2022-12-07T10:25:32;97414.00;;;8.70
19666;BMP180;9980;51.020;7.772;2022-12-07T10:28:17;97393.00;;;8.70
19666;BMP180;9980;51.020;7.772;2022-12-07T10:31:02;97388.00;;;8.80
19666;BMP180;9980;51.020;7.772;2022-12-07T10:33:38;97387.00;;;8.80
19666;BMP180;9980;51.020;7.772;2022-12-07T10:36:30;97389.00;;;8.80
19666;BMP180;9980;51.020;7.772;2022-12-07T10:39:13;97396.00;;;8.80
19666;BMP180;9980;51.020;7.772;2022-12-07T10:42:03;97386.00;;;8.90
19666;BMP180;9980;51.020;7.772;2022-12-07T10:44:33;97385.00;;;8.90
19666;BMP180;9980;51.020;7.772;2022-12-07T10:51:00;97387.00;;;8.90
19666;BMP180;9980;51.020;7.772;2022-12-07T10:53:56;97373.00;;;8.90
19666;BMP180;9980;51.020;7.772;2022-12-07T10:56:54;97367.00;;;8.90
19666;BMP180;9980;51.020;7.772;2022-12-07T10:59:50;97365.00;;;9.00
19666;BMP180;9980;51.020;7.772;2022-12-07T11:05:53;97362.00;;;9.00
19666;BMP180;9980;51.020;7.772;2022-12-07T11:17:03;97348.00;;;9.10
19666;BMP180;9980;51.020;7.772;2022-12-07T11:23:04;97356.00;;;9.20
19666;BMP180;9980;51.020;7.772;2022-12-07T11:25:52;97338.00;;;9.20
19666;BMP180;9980;51.020;7.772;2022-12-07T11:28:57;97339.00;;;9.20
19666;BMP180;9980;51.020;7.772;2022-12-07T11:32:04;97339.00;;;9.20
19666;BMP180;9980;51.020;7.772;2022-12-07T11:37:21;97336.00;;;9.30
19666;BMP180;9980;51.020;7.772;2022-12-07T11:40:35;97346.00;;;9.30
19666;BMP180;9980;51.020;7.772;2022-12-07T11:43:26;97329.00;;;9.30
19666;BMP180;9980;51.020;7.772;2022-12-07T11:46:04;97327.00;;;9.30
19666;BMP180;9980;51.020;7.772;2022-12-07T11:51:30;97317.00;;;9.30
19666;BMP180;9980;51.020;7.772;2022-12-07T11:54:09;97318.00;;;9.30
19666;BMP180;9980;51.020;7.772;2022-12-07T11:56:38;97326.00;;;9.30
19666;BMP180;9980;51.020;7.772;2022-12-07T11:59:17;97317.00;;;9.30
19666;BMP180;9980;51.020;7.772;2022-12-07T12:02:14;97318.00;;;9.20
19666;BMP180;9980;51.020;7.772;2022-12-07T12:05:16;97324.00;;;9.20
19666;BMP180;9980;51.020;7.772;2022-12-07T12:07:46;97321.00;;;9.30
19666;BMP180;9980;51.020;7.772;2022-12-07T12:11:15;97314.00;;;9.20
19666;BMP180;9980;51.020;7.772;2022-12-07T12:14:03;97318.00;;;9.20
19666;BMP180;9980;51.020;7.772;2022-12-07T12:20:40;97291.00;;;9.30
19666;BMP180;9980;51.020;7.772;2022-12-07T12:26:13;97310.00;;;9.30
19666;BMP180;9980;51.020;7.772;2022-12-07T12:28:56;97302.00;;;9.30
19666;BMP180;9980;51.020;7.772;2022-12-07T12:33:57;97290.00;;;9.40
19666;BMP180;9980;51.020;7.772;2022-12-07T12:39:14;97304.00;;;9.50
19666;BMP180;9980;51.020;7.772;2022-12-07T12:47:03;97287.00;;;9.50
19666;BMP180;9980;51.020;7.772;2022-12-07T12:49:35;97281.00;;;9.50
19666;BMP180;9980;51.020;7.772;2022-12-07T12:57:36;97282.00;;;9.50
19666;BMP180;9980;51.020;7.772;2022-12-07T13:00:29;97273.00;;;9.50
19666;BMP180;9980;51.020;7.772;2022-12-07T13:02:59;97276.00;;;9.50
19666;BMP180;9980;51.020;7.772;2022-12-07T13:05:29;97275.00;;;9.40
19666;BMP180;9980;51.020;7.772;2022-12-07T13:08:18;97265.00;;;9.40
19666;BMP180;9980;51.020;7.772;2022-12-07T13:10:47;97259.00;;;9.40
19666;BMP180;9980;51.020;7.772;2022-12-07T13:16:36;97272.00;;;9.40
19666;BMP180;9980;51.020;7.772;2022-12-07T13:18:41;97289.00;;;9.40
19666;BMP180;9980;51.020;7.772;2022-12-07T13:29:17;97278.00;;;9.30
19666;BMP180;9980;51.020;7.772;2022-12-07T13:31:53;97289.00;;;9.20
19666;BMP180;9980;51.020;7.772;2022-12-07T13:34:39;97268.00;;;9.20
19666;BMP180;9980;51.020;7.772;2022-12-07T13:37:28;97275.00;;;9.10
19666;BMP180;9980;51.020;7.772;2022-12-07T13:40:23;97273.00;;;9.10
19666;BMP180;9980;51.020;7.772;2022-12-07T13:42:59;97271.00;;;9.10
19666;BMP180;9980;51.020;7.772;2022-12-07T13:45:31;97269.00;;;9.10
19666;BMP180;9980;51.020;7.772;2022-12-07T13:48:30;97262.00;;;9.00
19666;BMP180;9980;51.020;7.772;2022-12-07T13:51:01;97264.00;;;9.00
19666;BMP180;9980;51.020;7.772;2022-12-07T13:53:28;97263.00;;;9.00
19666;BMP180;9980;51.020;7.772;2022-12-07T13:55:58;97264.00;;;9.00
19666;BMP180;9980;51.020;7.772;2022-12-07T13:58:31;97245.00;;;9.00
19666;BMP180;9980;51.020;7.772;2022-12-07T14:00:59;97246.00;;;9.00
19666;BMP180;9980;51.020;7.772;2022-12-07T14:03:33;97253.00;;;9.00
19666;BMP180;9980;51.020;7.772;2022-12-07T14:06:22;97248.00;;;9.00
19666;BMP180;9980;51.020;7.772;2022-12-07T14:09:17;97239.00;;;9.00
19666;BMP180;9980;51.020;7.772;2022-12-07T14:11:46;97246.00;;;9.00
19666;BMP180;9980;51.020;7.772;2022-12-07T14:14:19;97246.00;;;9.00
19666;BMP180;9980;51.020;7.772;2022-12-07T14:17:16;97238.00;;;9.00
19666;BMP180;9980;51.020;7.772;2022-12-07T14:19:59;97244.00;;;9.00
19666;BMP180;9980;51.020;7.772;2022-12-07T14:22:33;97242.00;;;9.00
19666;BMP180;9980;51.020;7.772;2022-12-07T14:25:17;97252.00;;;9.00
19666;BMP180;9980;51.020;7.772;2022-12-07T14:28:00;97247.00;;;9.00
19666;BMP180;9980;51.020;7.772;2022-12-07T14:30:33;97234.00;;;9.00
19666;BMP180;9980;51.020;7.772;2022-12-07T14:33:03;97240.00;;;9.00
19666;BMP180;9980;51.020;7.772;2022-12-07T14:35:31;97229.00;;;9.00
19666;BMP180;9980;51.020;7.772;2022-12-07T14:37:58;97216.00;;;9.00
19666;BMP180;9980;51.020;7.772;2022-12-07T14:40:28;97227.00;;;9.00
19666;BMP180;9980;51.020;7.772;2022-12-07T14:43:11;97209.00;;;9.00
19666;BMP180;9980;51.020;7.772;2022-12-07T14:45:38;97226.00;;;9.00
19666;BMP180;9980;51.020;7.772;2022-12-07T14:48:07;97214.00;;;9.00
19666;BMP180;9980;51.020;7.772;2022-12-07T14:50:56;97223.00;;;9.00
19666;BMP180;9980;51.020;7.772;2022-12-07T14:53:49;97201.00;;;9.00
19666;BMP180;9980;51.020;7.772;2022-12-07T14:56:24;97225.00;;;9.00
19666;BMP180;9980;51.020;7.772;2022-12-07T14:58:51;97218.00;;;9.00
19666;BMP180;9980;51.020;7.772;2022-12-07T15:01:17;97224.00;;;9.00
19666;BMP180;9980;51.020;7.772;2022-12-07T15:03:43;97218.00;;;9.00
19666;BMP180;9980;51.020;7.772;2022-12-07T15:06:15;97202.00;;;9.00
19666;BMP180;9980;51.020;7.772;2022-12-07T15:08:42;97203.00;;;9.00
19666;BMP180;9980;51.020;7.772;2022-12-07T15:11:16;97194.00;;;9.00
19666;BMP180;9980;51.020;7.772;2022-12-07T15:13:43;97202.00;;;8.90
19666;BMP180;9980;51.020;7.772;2022-12-07T15:16:28;97203.00;;;8.90
19666;BMP180;9980;51.020;7.772;2022-12-07T15:19:18;97199.00;;;8.90
19666;BMP180;9980;51.020;7.772;2022-12-07T15:21:54;97201.00;;;8.90
19666;BMP180;9980;51.020;7.772;2022-12-07T15:24:21;97186.00;;;8.90
19666;BMP180;9980;51.020;7.772;2022-12-07T15:26:47;97209.00;;;8.90
19666;BMP180;9980;51.020;7.772;2022-12-07T15:29:14;97199.00;;;8.80
19666;BMP180;9980;51.020;7.772;2022-12-07T15:31:50;97191.00;;;8.80
19666;BMP180;9980;51.020;7.772;2022-12-07T15:34:25;97210.00;;;8.80
19666;BMP180;9980;51.020;7.772;2022-12-07T15:36:52;97192.00;;;8.70
19666;BMP180;9980;51.020;7.772;2022-12-07T15:39:18;97204.00;;;8.70
19666;BMP180;9980;51.020;7.772;2022-12-07T15:41:45;97198.00;;;8.70
19666;BMP180;9980;51.020;7.772;2022-12-07T15:44:15;97183.00;;;8.70
19666;BMP180;9980;51.020;7.772;2022-12-07T15:47:00;97197.00;;;8.60
19666;BMP180;9980;51.020;7.772;2022-12-07T15:49:27;97204.00;;;8.60
19666;BMP180;9980;51.020;7.772;2022-12-07T15:51:54;97196.00;;;8.60
19666;BMP180;9980;51.020;7.772;2022-12-07T15:54:24;97191.00;;;8.60
19666;BMP180;9980;51.020;7.772;2022-12-07T15:56:51;97190.00;;;8.60
19666;BMP180;9980;51.020;7.772;2022-12-07T15:59:18;97192.00;;;8.50
19666;BMP180;9980;51.020;7.772;2022-12-07T16:01:44;97189.00;;;8.50
19666;BMP180;9980;51.020;7.772;2022-12-07T16:04:11;97187.00;;;8.50
19666;BMP180;9980;51.020;7.772;2022-12-07T16:06:38;97191.00;;;8.50
19666;BMP180;9980;51.020;7.772;2022-12-07T16:09:05;97186.00;;;8.50
19666;BMP180;9980;51.020;7.772;2022-12-07T16:11:32;97177.00;;;8.50
19666;BMP180;9980;51.020;7.772;2022-12-07T16:13:59;97190.00;;;8.50
19666;BMP180;9980;51.020;7.772;2022-12-07T16:16:25;97193.00;;;8.40
19666;BMP180;9980;51.020;7.772;2022-12-07T16:18:52;97183.00;;;8.40
19666;BMP180;9980;51.020;7.772;2022-12-07T16:21:18;97183.00;;;8.40
19666;BMP180;9980;51.020;7.772;2022-12-07T16:23:51;97198.00;;;8.40
19666;BMP180;9980;51.020;7.772;2022-12-07T16:26:21;97179.00;;;8.40
19666;BMP180;9980;51.020;7.772;2022-12-07T16:28:52;97185.00;;;8.40